MAPA DE AEROPUERTO

INFORMACIÓN METAR y TAF

METAR FOR GCRR
ADDS - METARS form results

(0757 UTC 05 December 2020)
Data provider http://aviationweather.gov/metar/data/
 
METAR text: GCRR 050730Z 33013KT 8000 -RA FEW015 SCT035 BKN048 17/14 Q1017
Conditions at: GCRR (ARRECIFE/LANZARO, ES) observed 0730 UTC 05 December 2020
Temperature: 17.0°C (63°F)
Dewpoint: 14.0°C (57°F) [RH = 82%]
Pressure (altimeter): 30.03 inches Hg (1017.0 mb)
Winds: from the NNW (330 degrees) at 15 MPH (13 knots; 6.7 m/s)
Visibility: 5 miles ( 8 km)
Ceiling: 4800 feet AGL
Clouds: few clouds at 1500 feet AGL
scattered clouds at 3500 feet AGL
broken clouds at 4800 feet AGL
Weather: -RA  (light rain)

METAR text: GCRR 050700Z 33014KT 300V360 9000 -RA FEW018 BKN034 17/14 Q1017
Conditions at: GCRR (ARRECIFE/LANZARO, ES) observed 0700 UTC 05 December 2020
Temperature: 17.0°C (63°F)
Dewpoint: 14.0°C (57°F) [RH = 82%]
Pressure (altimeter): 30.03 inches Hg (1017.0 mb)
Winds: from the NNW (330 degrees) at 16 MPH (14 knots; 7.2 m/s)
Visibility: 6 miles ( 9 km)
Ceiling: 3400 feet AGL
Clouds: few clouds at 1800 feet AGL
broken clouds at 3400 feet AGL
Weather: -RA  (light rain)

Forecast for: GCRR (ARRECIFE/LANZARO, ES)
Text: TAF GCRR 050200Z 0503/0603 34009KT 9999 BKN035 TX22/0514Z TN14/0507Z
Forecast period: 0300 UTC 05 December 2020 to 0300 UTC 06 December 2020
Forecast type: FROM: standard forecast or significant change
Winds: from the NNW (340 degrees) at 10 MPH (9 knots; 4.6 m/s)
Visibility: 6 or more miles (10+ km)
Ceiling: 3500 feet AGL
Clouds: broken clouds at 3500 feet AGL
Weather: no significant weather forecast for this period
Text: PROB30
Forecast period: 0300 to 0900 UTC 05 December 2020
Forecast type: TEMPORARY: The following changes expected for less than half the time period
Visibility: missing
Ceiling: unknown
Clouds: missing
Weather: RA  (moderate rain)